createdAt,value
2022-11-12T00:01:01.541Z,8.65
2022-11-12T00:03:29.253Z,8.63
2022-11-12T00:05:56.867Z,8.38
2022-11-12T00:08:24.949Z,8.18
2022-11-12T00:10:52.920Z,7.65
2022-11-12T00:13:22.005Z,7.97
2022-11-12T00:15:49.680Z,8.10
2022-11-12T00:18:17.379Z,8.52
2022-11-12T00:20:45.444Z,8.38
2022-11-12T00:23:13.147Z,7.47
2022-11-12T00:25:41.155Z,7.90
2022-11-12T00:28:10.793Z,6.77
2022-11-12T00:30:41.177Z,6.90
2022-11-12T00:33:08.957Z,6.97
2022-11-12T00:35:36.691Z,6.20
2022-11-12T00:38:04.404Z,7.10
2022-11-12T00:40:32.139Z,6.88
2022-11-12T00:42:59.831Z,6.70
2022-11-12T00:45:27.559Z,6.37
2022-11-12T00:47:57.504Z,6.60
2022-11-12T00:50:25.853Z,6.40
2022-11-12T00:52:53.944Z,6.82
2022-11-12T00:55:21.612Z,6.75
2022-11-12T00:57:49.285Z,6.55
2022-11-12T01:00:17.784Z,6.37
2022-11-12T01:02:50.709Z,7.07
2022-11-12T01:05:21.167Z,6.47
2022-11-12T01:07:54.703Z,7.10
2022-11-12T01:10:23.676Z,7.28
2022-11-12T01:12:51.311Z,6.90
2022-11-12T01:15:19.094Z,7.00
2022-11-12T01:17:46.792Z,7.20
2022-11-12T01:20:14.541Z,7.10
2022-11-12T01:22:43.613Z,7.30
2022-11-12T01:25:11.281Z,8.15
2022-11-12T01:27:38.908Z,7.45
2022-11-12T01:30:07.391Z,6.97
2022-11-12T01:32:38.302Z,6.85
2022-11-12T01:35:06.716Z,8.07
2022-11-12T01:37:34.453Z,7.78
2022-11-12T01:40:03.717Z,8.13
2022-11-12T01:42:32.633Z,7.97
2022-11-12T01:45:00.326Z,8.15
2022-11-12T01:47:30.066Z,7.18
2022-11-12T01:50:00.854Z,7.70
2022-11-12T01:52:32.321Z,7.53
2022-11-12T01:55:06.799Z,7.25
2022-11-12T01:57:38.356Z,6.90
2022-11-12T02:00:10.153Z,7.32
2022-11-12T02:02:38.259Z,6.70
2022-11-12T02:05:08.563Z,7.18
2022-11-12T02:07:37.181Z,6.60
2022-11-12T02:10:07.932Z,6.53
2022-11-12T02:12:53.617Z,6.60
2022-11-12T02:15:21.383Z,6.28
2022-11-12T02:17:49.196Z,6.28
2022-11-12T02:20:17.779Z,6.20
2022-11-12T02:22:47.031Z,6.07
2022-11-12T02:25:18.731Z,5.80
2022-11-12T02:27:46.755Z,5.38
2022-11-12T02:30:14.500Z,4.85
2022-11-12T02:32:42.299Z,5.50
2022-11-12T02:35:10.321Z,8.73
2022-11-12T02:37:37.956Z,7.30
2022-11-12T02:40:08.994Z,6.57
2022-11-12T02:42:36.788Z,5.38
2022-11-12T02:45:05.276Z,5.07
2022-11-12T02:47:32.969Z,5.00
2022-11-12T02:50:00.611Z,4.65
2022-11-12T02:52:28.325Z,4.90
2022-11-12T02:54:56.065Z,4.97
2022-11-12T02:57:25.484Z,4.60
2022-11-12T02:59:53.166Z,4.50
2022-11-12T03:02:20.933Z,4.53
2022-11-12T03:04:49.742Z,4.43
2022-11-12T03:07:17.667Z,4.65
2022-11-12T03:09:45.357Z,4.28
2022-11-12T03:12:13.209Z,4.63
2022-11-12T03:14:42.344Z,5.77
2022-11-12T03:17:10.182Z,5.63
2022-11-12T03:19:37.812Z,6.38
2022-11-12T03:22:05.597Z,6.95
2022-11-12T03:24:33.255Z,6.50
2022-11-12T03:27:00.887Z,5.45
2022-11-12T03:29:28.608Z,5.10
2022-11-12T03:31:57.663Z,4.78
2022-11-12T03:34:25.355Z,5.22
2022-11-12T03:36:53.031Z,4.82
2022-11-12T03:39:20.752Z,5.03
2022-11-12T03:41:48.438Z,4.78
2022-11-12T03:44:16.057Z,4.97
2022-11-12T03:46:44.532Z,5.18
2022-11-12T03:49:13.752Z,5.25
2022-11-12T03:51:41.489Z,5.00
2022-11-12T03:54:09.240Z,4.85
2022-11-12T03:56:36.911Z,4.90
2022-11-12T03:59:05.025Z,7.00
2022-11-12T04:01:33.001Z,6.60
2022-11-12T04:04:00.779Z,8.15
2022-11-12T04:06:47.487Z,7.13
2022-11-12T04:09:15.484Z,6.85
2022-11-12T04:11:43.138Z,6.40
2022-11-12T04:14:09.788Z,5.25
2022-11-12T04:16:55.160Z,5.97
2022-11-12T04:19:40.455Z,5.20
2022-11-12T04:22:11.365Z,5.43
2022-11-12T04:24:57.866Z,5.57
2022-11-12T04:27:27.574Z,5.30
2022-11-12T04:30:13.190Z,4.68
2022-11-12T04:32:42.549Z,4.90
2022-11-12T04:35:11.051Z,5.53
2022-11-12T04:37:46.701Z,5.60
2022-11-12T04:40:33.501Z,4.90
2022-11-12T04:43:19.283Z,4.53
2022-11-12T04:45:49.488Z,4.97
2022-11-12T04:48:17.818Z,5.60
2022-11-12T04:50:46.822Z,5.28
2022-11-12T04:53:16.134Z,5.22
2022-11-12T04:55:43.753Z,5.10
2022-11-12T04:58:11.874Z,5.30
2022-11-12T05:00:39.643Z,5.28
2022-11-12T05:03:07.353Z,5.50
2022-11-12T05:05:35.007Z,5.65
2022-11-12T05:08:03.144Z,5.82
2022-11-12T05:10:32.623Z,5.90
2022-11-12T05:13:00.354Z,5.57
2022-11-12T05:15:28.103Z,5.50
2022-11-12T05:17:55.778Z,5.53
2022-11-12T05:20:23.500Z,5.28
2022-11-12T05:23:05.432Z,5.25
2022-11-12T05:25:35.326Z,5.53
2022-11-12T05:28:02.971Z,5.53
2022-11-12T05:30:30.732Z,5.75
2022-11-12T05:32:58.372Z,5.53
2022-11-12T05:35:26.080Z,5.33
2022-11-12T05:37:53.740Z,5.45
2022-11-12T05:40:21.517Z,6.30
2022-11-12T05:42:50.544Z,5.77
2022-11-12T05:45:18.254Z,6.20
2022-11-12T05:47:45.883Z,6.38
2022-11-12T05:50:13.539Z,5.80
2022-11-12T05:52:41.184Z,5.75
2022-11-12T05:55:09.536Z,5.63
2022-11-12T05:57:37.146Z,5.50
2022-11-12T06:00:07.634Z,5.20
2022-11-12T06:02:35.355Z,5.57
2022-11-12T06:05:03.178Z,5.03
2022-11-12T06:07:30.980Z,5.55
2022-11-12T06:09:58.671Z,5.30
2022-11-12T06:12:26.313Z,5.60
2022-11-12T06:14:53.941Z,5.40
2022-11-12T06:17:23.085Z,5.72
2022-11-12T06:19:50.841Z,5.70
2022-11-12T06:22:18.577Z,6.05
2022-11-12T06:24:46.494Z,5.93
2022-11-12T06:27:14.148Z,5.72
2022-11-12T06:29:41.836Z,6.22
2022-11-12T06:32:09.551Z,5.55
2022-11-12T06:34:38.614Z,5.63
2022-11-12T06:37:06.395Z,4.75
2022-11-12T06:39:34.075Z,5.20
2022-11-12T06:42:02.024Z,5.32
2022-11-12T06:44:29.838Z,5.10
2022-11-12T06:46:57.521Z,5.00
2022-11-12T06:49:25.229Z,5.07
2022-11-12T06:51:54.279Z,5.13
2022-11-12T06:54:21.978Z,5.25
2022-11-12T06:56:49.687Z,5.28
2022-11-12T06:59:17.556Z,5.93
2022-11-12T07:01:45.481Z,6.43
2022-11-12T07:04:13.228Z,5.40
2022-11-12T07:06:40.929Z,5.35
2022-11-12T07:09:10.050Z,4.70
2022-11-12T07:11:37.739Z,5.38
2022-11-12T07:14:06.562Z,5.53
2022-11-12T07:16:34.656Z,5.38
2022-11-12T07:19:02.450Z,5.38
2022-11-12T07:21:30.097Z,4.97
2022-11-12T07:23:57.791Z,4.85
2022-11-12T07:26:28.507Z,5.10
2022-11-12T07:28:56.688Z,5.40
2022-11-12T07:31:25.809Z,5.90
2022-11-12T07:33:53.532Z,6.15
2022-11-12T07:36:22.344Z,5.95
2022-11-12T07:38:52.743Z,5.80
2022-11-12T07:41:21.584Z,5.43
2022-11-12T07:43:52.199Z,5.57
2022-11-12T07:46:22.371Z,6.43
2022-11-12T07:48:50.228Z,6.68
2022-11-12T07:51:19.641Z,6.27
2022-11-12T07:53:48.134Z,6.78
2022-11-12T07:56:17.550Z,7.43
2022-11-12T07:58:45.968Z,7.38
2022-11-12T08:01:24.468Z,8.40
2022-11-12T08:03:52.532Z,8.80
2022-11-12T08:06:20.257Z,10.87
2022-11-12T08:08:47.932Z,11.45
2022-11-12T08:11:15.613Z,12.55
2022-11-12T08:13:43.249Z,11.07
2022-11-12T08:16:10.873Z,9.27
2022-11-12T08:18:39.922Z,8.52
2022-11-12T08:21:08.835Z,7.97
2022-11-12T08:23:36.464Z,8.37
2022-11-12T08:26:05.583Z,9.10
2022-11-12T08:28:34.626Z,10.20
2022-11-12T08:31:05.090Z,10.25
2022-11-12T08:33:32.712Z,8.97
2022-11-12T08:36:03.833Z,8.20
2022-11-12T08:38:31.653Z,9.75
2022-11-12T08:41:01.656Z,8.27
2022-11-12T08:43:29.236Z,8.07
2022-11-12T08:45:59.145Z,8.65
2022-11-12T08:48:27.354Z,8.77
2022-11-12T08:50:55.288Z,9.00
2022-11-12T08:53:25.188Z,8.70
2022-11-12T08:55:54.631Z,7.82
2022-11-12T08:58:22.666Z,8.25
2022-11-12T09:00:50.956Z,8.20
2022-11-12T09:03:20.150Z,8.30
2022-11-12T09:05:48.317Z,9.10
2022-11-12T09:08:18.426Z,8.37
2022-11-12T09:10:47.797Z,8.82
2022-11-12T09:13:15.442Z,7.68
2022-11-12T09:15:43.074Z,8.40
2022-11-12T09:18:13.374Z,8.02
2022-11-12T09:20:41.176Z,8.40
2022-11-12T09:23:10.695Z,8.05
2022-11-12T09:25:38.802Z,7.32
2022-11-12T09:28:12.778Z,7.80
2022-11-12T09:30:46.370Z,7.78
2022-11-12T09:33:14.405Z,7.72
2022-11-12T09:35:42.072Z,8.52
2022-11-12T09:38:09.686Z,8.15
2022-11-12T09:40:56.559Z,8.57
2022-11-12T09:43:28.520Z,8.65
2022-11-12T09:46:21.492Z,8.37
2022-11-12T09:48:49.223Z,8.68
2022-11-12T09:51:23.212Z,8.23
2022-11-12T09:53:56.247Z,8.57
2022-11-12T09:56:25.141Z,8.75
2022-11-12T09:58:54.942Z,8.07
2022-11-12T10:01:26.069Z,8.13
2022-11-12T10:04:00.318Z,8.50
2022-11-12T10:06:32.264Z,8.17
2022-11-12T10:09:05.922Z,8.30
2022-11-12T10:12:04.201Z,8.50
2022-11-12T10:14:47.470Z,8.63
2022-11-12T10:17:19.062Z,8.18
2022-11-12T10:19:55.091Z,7.97
2022-11-12T10:22:34.195Z,8.10
2022-11-12T10:25:14.170Z,7.73
2022-11-12T10:27:43.368Z,8.85
2022-11-12T10:30:17.918Z,8.67
2022-11-12T10:32:46.993Z,7.45
2022-11-12T10:35:17.519Z,7.90
2022-11-12T10:37:49.092Z,8.18
2022-11-12T10:40:29.430Z,7.38
2022-11-12T10:42:59.519Z,7.47
2022-11-12T10:45:28.899Z,7.30
2022-11-12T10:47:57.127Z,7.35
2022-11-12T10:50:26.693Z,7.80
2022-11-12T10:52:59.848Z,7.40
2022-11-12T10:55:29.023Z,7.43
2022-11-12T10:58:23.829Z,7.80
2022-11-12T11:00:58.836Z,6.93
2022-11-12T11:03:28.612Z,7.38
2022-11-12T11:05:59.403Z,6.68
2022-11-12T11:08:36.459Z,6.17
2022-11-12T11:11:26.237Z,6.60
2022-11-12T11:13:56.132Z,7.20
2022-11-12T11:16:26.606Z,6.78
2022-11-12T11:18:56.933Z,7.20
2022-11-12T11:21:53.739Z,7.03
2022-11-12T11:24:37.887Z,7.25
2022-11-12T11:27:09.421Z,6.65
2022-11-12T11:29:49.462Z,6.28
2022-11-12T11:32:36.063Z,6.40
2022-11-12T11:35:15.915Z,5.68
2022-11-12T11:37:48.109Z,5.88
2022-11-12T11:40:22.392Z,5.72
2022-11-12T11:43:04.418Z,6.22
2022-11-12T11:45:37.763Z,5.40
2022-11-12T11:48:14.030Z,5.47
2022-11-12T11:50:44.222Z,4.75
2022-11-12T11:53:20.458Z,5.43
2022-11-12T11:55:56.013Z,5.60
2022-11-12T11:58:41.127Z,5.47
2022-11-12T12:01:13.716Z,5.60
2022-11-12T12:03:53.436Z,8.47
2022-11-12T12:06:23.779Z,8.32
2022-11-12T12:09:00.788Z,6.20
2022-11-12T12:11:32.161Z,5.40
2022-11-12T12:14:28.047Z,5.38
2022-11-12T12:17:03.194Z,5.10
2022-11-12T12:19:41.392Z,5.10
2022-11-12T12:22:12.771Z,4.70
2022-11-12T12:24:47.549Z,4.63
2022-11-12T12:27:19.239Z,5.70
2022-11-12T12:29:50.023Z,4.78
2022-11-12T12:32:24.135Z,4.50
2022-11-12T12:34:58.027Z,5.70
2022-11-12T12:37:28.665Z,5.15
2022-11-12T12:40:04.374Z,5.72
2022-11-12T12:42:37.517Z,4.88
2022-11-12T12:45:23.104Z,5.03
2022-11-12T12:47:51.080Z,4.32
2022-11-12T12:50:22.431Z,5.38
2022-11-12T12:53:42.920Z,5.68
2022-11-12T12:56:44.179Z,6.13
2022-11-12T12:59:21.147Z,4.53
2022-11-12T13:01:56.388Z,4.10
2022-11-12T13:04:52.513Z,4.77
2022-11-12T13:07:42.908Z,4.27
2022-11-12T13:10:52.588Z,4.80
2022-11-12T13:13:32.596Z,5.57
2022-11-12T13:16:01.911Z,5.82
2022-11-12T13:19:00.280Z,4.80
2022-11-12T13:21:28.189Z,5.53
2022-11-12T13:24:11.016Z,5.13
2022-11-12T13:26:53.319Z,14.05
2022-11-12T13:29:27.194Z,7.25
2022-11-12T13:32:27.850Z,8.30
2022-11-12T13:35:40.274Z,6.80
2022-11-12T13:38:15.513Z,5.72
2022-11-12T13:40:46.688Z,5.07
2022-11-12T13:43:33.767Z,5.30
2022-11-12T13:46:23.656Z,5.03
2022-11-12T13:48:58.761Z,5.05
2022-11-12T13:51:31.406Z,4.80
2022-11-12T13:53:59.243Z,5.35
2022-11-12T13:56:30.376Z,4.82
2022-11-12T13:59:09.742Z,4.82
2022-11-12T14:03:18.456Z,4.63
2022-11-12T14:05:48.426Z,4.50
2022-11-12T14:08:35.182Z,4.40
2022-11-12T14:11:26.257Z,5.43
2022-11-12T14:14:02.622Z,4.80
2022-11-12T14:16:39.468Z,4.27
2022-11-12T14:19:24.189Z,4.93
2022-11-12T14:22:02.691Z,5.13
2022-11-12T14:24:33.413Z,5.68
2022-11-12T14:27:01.092Z,6.63
2022-11-12T14:29:34.185Z,6.50
2022-11-12T14:32:03.881Z,6.47
2022-11-12T14:34:34.215Z,6.20
2022-11-12T14:37:02.456Z,6.13
2022-11-12T14:39:30.832Z,6.60
2022-11-12T14:44:10.878Z,7.13
2022-11-12T14:46:46.188Z,6.85
2022-11-12T14:49:19.436Z,6.03
2022-11-12T14:51:50.416Z,5.57
2022-11-12T14:54:25.407Z,5.50
2022-11-12T14:56:53.269Z,5.72
2022-11-12T14:59:22.349Z,5.68
2022-11-12T15:02:37.377Z,5.97
2022-11-12T15:05:01.995Z,5.82
2022-11-12T15:07:32.274Z,6.50
2022-11-12T15:09:59.865Z,5.82
2022-11-12T15:12:30.123Z,6.70
2022-11-12T15:15:09.631Z,8.07
2022-11-12T15:17:38.192Z,6.85
2022-11-12T15:20:07.828Z,7.50
2022-11-12T15:22:35.834Z,10.23
2022-11-12T15:25:18.101Z,7.93
2022-11-12T15:27:45.746Z,7.35
2022-11-12T15:30:20.976Z,7.20
2022-11-12T15:32:48.615Z,7.63
2022-11-12T15:35:37.931Z,8.30
2022-11-12T15:38:07.855Z,8.70
2022-11-12T15:40:43.937Z,8.30
2022-11-12T15:43:14.683Z,6.50
2022-11-12T15:46:16.494Z,9.23
2022-11-12T15:48:44.323Z,8.75
2022-11-12T15:51:12.539Z,9.45
2022-11-12T15:53:40.100Z,8.60
2022-11-12T15:56:10.038Z,8.50
2022-11-12T15:58:40.374Z,7.75
2022-11-12T16:01:07.961Z,7.78
2022-11-12T16:03:37.046Z,8.30
2022-11-12T16:06:09.013Z,8.93
2022-11-12T16:08:37.222Z,9.10
2022-11-12T16:11:24.908Z,9.05
2022-11-12T16:13:52.607Z,9.38
2022-11-12T16:16:20.167Z,9.48
2022-11-12T16:18:49.183Z,9.10
2022-11-12T16:21:20.670Z,9.15
2022-11-12T16:23:48.656Z,10.30
2022-11-12T16:26:21.166Z,11.35
2022-11-12T16:28:48.753Z,13.85
2022-11-12T16:31:16.352Z,16.67
2022-11-12T16:33:44.961Z,14.95
2022-11-12T16:36:15.942Z,14.15
2022-11-12T16:38:43.737Z,13.83
2022-11-12T16:41:12.875Z,16.33
2022-11-12T16:43:40.661Z,16.20
2022-11-12T16:46:15.294Z,20.00
2022-11-12T16:48:42.959Z,22.33
2022-11-12T16:51:18.407Z,22.02
2022-11-12T16:53:46.564Z,23.50
2022-11-12T16:56:15.428Z,22.75
2022-11-12T16:58:43.191Z,22.15
2022-11-12T17:01:14.616Z,21.67
2022-11-12T17:03:42.846Z,23.45
2022-11-12T17:06:10.464Z,30.42
2022-11-12T17:08:39.691Z,32.03
2022-11-12T17:11:09.672Z,31.03
2022-11-12T17:13:38.630Z,30.50
2022-11-12T17:16:07.066Z,29.02
2022-11-12T17:18:35.175Z,27.03
2022-11-12T17:21:10.886Z,29.48
2022-11-12T17:23:40.161Z,28.83
2022-11-12T17:26:09.196Z,28.05
2022-11-12T17:28:37.432Z,26.20
2022-11-12T17:31:06.833Z,26.27
2022-11-12T17:33:38.604Z,24.75
2022-11-12T17:36:07.804Z,24.42
2022-11-12T17:38:35.509Z,25.63
2022-11-12T17:41:05.039Z,28.27
2022-11-12T17:43:32.902Z,22.05
2022-11-12T17:46:00.842Z,20.70
2022-11-12T17:48:28.907Z,20.40
2022-11-12T17:51:06.008Z,20.90
2022-11-12T17:53:33.706Z,21.43
2022-11-12T17:56:01.603Z,21.88
2022-11-12T18:00:07.147Z,20.30
2022-11-12T18:02:34.786Z,19.35
2022-11-12T18:05:02.463Z,19.75
2022-11-12T18:07:30.375Z,19.13
2022-11-12T18:09:58.290Z,19.92
2022-11-12T18:12:25.960Z,20.20
2022-11-12T18:14:53.585Z,20.52
2022-11-12T18:17:22.673Z,19.80
2022-11-12T18:19:50.321Z,19.48
2022-11-12T18:22:19.449Z,20.25
2022-11-12T18:24:48.141Z,20.92
2022-11-12T18:27:15.944Z,19.13
2022-11-12T18:29:45.600Z,20.15
2022-11-12T18:32:13.640Z,21.88
2022-11-12T18:34:45.091Z,21.63
2022-11-12T18:37:13.137Z,19.55
2022-11-12T18:39:41.032Z,20.23
2022-11-12T18:42:08.689Z,18.95
2022-11-12T18:44:37.521Z,21.02
2022-11-12T18:47:05.240Z,21.23
2022-11-12T18:50:15.991Z,26.33
2022-11-12T18:52:43.657Z,27.00
2022-11-12T18:55:11.520Z,27.45
2022-11-12T18:57:39.241Z,27.83
2022-11-12T19:00:07.545Z,30.52
2022-11-12T19:02:35.251Z,33.35
2022-11-12T19:05:02.944Z,33.55
2022-11-12T19:07:32.091Z,30.52
2022-11-12T19:09:59.892Z,28.27
2022-11-12T19:12:27.633Z,26.02
2022-11-12T19:14:55.430Z,25.63
2022-11-12T19:17:25.990Z,25.25
2022-11-12T19:19:56.022Z,24.42
2022-11-12T19:22:23.687Z,22.73
2022-11-12T19:24:53.070Z,22.90
2022-11-12T19:27:20.905Z,25.60
2022-11-12T19:29:49.553Z,28.58
2022-11-12T19:32:17.164Z,29.55
2022-11-12T19:34:44.820Z,29.83
2022-11-12T19:37:32.424Z,34.60
2022-11-12T19:40:01.523Z,40.08
2022-11-12T19:42:29.209Z,40.13
2022-11-12T19:44:56.852Z,35.13
2022-11-12T19:47:24.633Z,26.20
2022-11-12T19:49:52.285Z,23.65
2022-11-12T19:52:19.981Z,21.77
2022-11-12T19:54:47.748Z,20.63
2022-11-12T19:57:16.794Z,22.98
2022-11-12T19:59:44.472Z,20.05
2022-11-12T20:02:12.815Z,20.60
2022-11-12T20:04:40.574Z,20.10
2022-11-12T20:07:09.238Z,19.98
2022-11-12T20:09:37.269Z,20.25
2022-11-12T20:12:06.033Z,18.42
2022-11-12T20:14:35.261Z,17.80
2022-11-12T20:17:02.966Z,22.90
2022-11-12T20:19:30.672Z,22.65
2022-11-12T20:21:58.361Z,20.23
2022-11-12T20:24:26.054Z,23.73
2022-11-12T20:26:53.765Z,26.45
2022-11-12T20:29:21.476Z,28.13
2022-11-12T20:31:50.487Z,37.08
2022-11-12T20:34:18.153Z,38.67
2022-11-12T20:36:45.855Z,35.83
2022-11-12T20:39:13.554Z,23.05
2022-11-12T20:41:41.146Z,21.38
2022-11-12T20:44:09.119Z,20.90
2022-11-12T20:46:36.773Z,24.17
2022-11-12T20:49:06.523Z,23.92
2022-11-12T20:51:35.077Z,23.03
2022-11-12T20:54:03.263Z,22.85
2022-11-12T20:56:31.884Z,24.63
2022-11-12T20:59:00.179Z,25.20
2022-11-12T21:01:29.085Z,25.27
2022-11-12T21:03:58.029Z,27.92
2022-11-12T21:06:29.226Z,27.45
2022-11-12T21:08:59.777Z,26.53
2022-11-12T21:11:27.424Z,22.00
2022-11-12T21:13:55.304Z,21.37
2022-11-12T21:16:22.933Z,23.20
2022-11-12T21:18:50.561Z,20.65
2022-11-12T21:21:21.139Z,20.35
2022-11-12T21:23:51.291Z,20.83
2022-11-12T21:26:20.334Z,20.92
2022-11-12T21:28:49.350Z,19.52
2022-11-12T21:31:18.276Z,18.85
2022-11-12T21:33:45.927Z,19.30
2022-11-12T21:36:16.567Z,17.67
2022-11-12T21:38:44.584Z,16.55
2022-11-12T21:41:14.974Z,17.70
2022-11-12T21:43:44.630Z,20.98
2022-11-12T21:46:14.402Z,25.47
2022-11-12T21:48:42.174Z,23.85
2022-11-12T21:51:11.629Z,24.92
2022-11-12T21:53:39.814Z,26.33
2022-11-12T21:56:10.628Z,33.33
2022-11-12T21:58:39.861Z,57.30
2022-11-12T22:01:08.882Z,47.67
2022-11-12T22:03:36.637Z,42.60
2022-11-12T22:06:04.483Z,42.60
2022-11-12T22:08:32.239Z,32.67
2022-11-12T22:11:03.845Z,30.77
2022-11-12T22:13:31.669Z,22.77
2022-11-12T22:16:05.236Z,31.60
2022-11-12T22:18:34.195Z,24.98
2022-11-12T22:21:03.554Z,25.75
2022-11-12T22:23:32.967Z,40.85
2022-11-12T22:26:00.958Z,37.23
2022-11-12T22:28:29.041Z,32.28
2022-11-12T22:30:57.050Z,29.53
2022-11-12T22:33:26.090Z,27.58
2022-11-12T22:35:53.673Z,25.10
2022-11-12T22:38:21.359Z,24.73
2022-11-12T22:40:49.027Z,23.83
2022-11-12T22:43:16.614Z,25.23
2022-11-12T22:45:44.241Z,25.35
2022-11-12T22:48:11.903Z,24.35
2022-11-12T22:50:41.151Z,26.65
2022-11-12T22:53:08.883Z,21.10
2022-11-12T22:55:36.622Z,23.48
2022-11-12T22:58:04.300Z,22.92
2022-11-12T23:00:33.280Z,21.77
2022-11-12T23:03:00.973Z,21.27
2022-11-12T23:05:28.573Z,20.00
2022-11-12T23:07:57.806Z,19.35
2022-11-12T23:10:25.437Z,19.30
2022-11-12T23:12:53.131Z,19.10
2022-11-12T23:15:20.757Z,18.20
2022-11-12T23:17:48.444Z,17.55
2022-11-12T23:20:16.701Z,17.27
2022-11-12T23:22:44.332Z,17.35
2022-11-12T23:25:13.428Z,17.55
2022-11-12T23:27:41.228Z,17.88
2022-11-12T23:30:09.800Z,18.85
2022-11-12T23:32:37.403Z,17.58
2022-11-12T23:35:06.009Z,17.55
2022-11-12T23:37:33.686Z,16.98
2022-11-12T23:40:01.361Z,17.23
2022-11-12T23:42:30.444Z,17.25
2022-11-12T23:44:58.129Z,16.70
2022-11-12T23:47:25.744Z,16.63
2022-11-12T23:49:53.485Z,16.55
2022-11-12T23:52:21.156Z,16.98
2022-11-12T23:54:48.806Z,16.58
2022-11-12T23:57:16.573Z,16.20
2022-11-12T23:59:46.103Z,15.68
